Time;durP1;ratioP1;P1;durP2;ratioP2;P2;SDS_P1;SDS_P2;PMS_P1;PMS_P2;Temp;Humidity;BMP_temperature;BMP_pressure;BME280_temperature;BME280_humidity;BME280_pressure;Samples;Min_cycle;Max_cycle;Signal;HPM_P1;HPM_P2
2022/03/16 00:01:07;;;;;;;20.02;13.32;;;;;;;5.49;100.00;99093.47;10381780;28;20128;-49
2022/03/16 00:06:11;;;;;;;21.20;14.40;;;;;;;5.43;100.00;99093.94;10386428;28;20125;-49
2022/03/16 00:11:15;;;;;;;23.75;14.45;;;;;;;5.36;100.00;99106.00;10392743;28;20140;-49
2022/03/16 00:16:18;;;;;;;21.63;14.82;;;;;;;5.33;100.00;99114.28;10390894;28;20437;-49
2022/03/16 00:21:22;;;;;;;22.65;15.50;;;;;;;5.31;100.00;99117.03;10399451;28;20099;-53
2022/03/16 00:26:25;;;;;;;21.30;14.75;;;;;;;5.30;100.00;99112.66;10392060;28;20045;-52
2022/03/16 00:31:28;;;;;;;21.73;13.75;;;;;;;5.31;100.00;99109.03;10383796;28;20137;-52
2022/03/16 00:36:33;;;;;;;20.88;14.00;;;;;;;5.34;100.00;99107.97;10377548;28;20107;-49
2022/03/16 00:41:36;;;;;;;18.10;13.60;;;;;;;5.42;100.00;99105.59;10401244;28;20077;-53
2022/03/16 00:46:41;;;;;;;17.58;12.20;;;;;;;5.45;100.00;99110.72;10393914;28;20490;-50
2022/03/16 00:51:45;;;;;;;16.92;12.05;;;;;;;5.42;100.00;99121.63;10388030;28;20108;-54
2022/03/16 00:56:48;;;;;;;16.95;12.73;;;;;;;5.38;100.00;99122.78;10390418;28;20038;-52
2022/03/16 01:01:51;;;;;;;17.65;13.05;;;;;;;5.32;100.00;99128.59;10387466;28;20132;-50
2022/03/16 01:06:56;;;;;;;19.25;13.30;;;;;;;5.32;100.00;99125.91;10380619;28;20056;-51
2022/03/16 01:12:00;;;;;;;21.52;14.70;;;;;;;5.25;100.00;99126.34;10394604;28;20466;-55
2022/03/16 01:17:04;;;;;;;22.50;15.52;;;;;;;5.27;100.00;99139.63;10392114;28;20149;-49
2022/03/16 01:22:08;;;;;;;16.95;13.13;;;;;;;5.28;100.00;99141.31;10386774;28;20048;-55
2022/03/16 01:27:12;;;;;;;20.20;14.50;;;;;;;5.26;100.00;99148.59;10379685;28;20135;-50
2022/03/16 01:32:21;;;;;;;21.23;14.75;;;;;;;5.23;100.00;99140.78;10383760;28;20132;-49
2022/03/16 01:37:26;;;;;;;19.45;14.63;;;;;;;5.17;100.00;99144.75;10380401;28;20092;-58
2022/03/16 01:42:29;;;;;;;24.42;16.58;;;;;;;5.11;100.00;99150.53;10404403;28;20054;-50
2022/03/16 01:47:32;;;;;;;24.38;16.92;;;;;;;5.07;100.00;99151.72;10388490;28;20116;-49
2022/03/16 01:52:37;;;;;;;20.75;15.38;;;;;;;5.07;100.00;99151.72;10379847;28;20649;-47
2022/03/16 01:57:42;;;;;;;20.23;15.02;;;;;;;5.09;100.00;99157.81;10382224;28;20052;-51
2022/03/16 02:02:46;;;;;;;17.40;13.15;;;;;;;5.06;100.00;99164.19;10368092;28;20125;-47
2022/03/16 02:07:51;;;;;;;15.77;12.57;;;;;;;5.08;100.00;99166.78;10370213;28;20050;-47
2022/03/16 02:12:55;;;;;;;14.00;11.15;;;;;;;5.03;100.00;99169.78;10366979;28;20505;-48
2022/03/16 02:17:58;;;;;;;14.25;11.68;;;;;;;4.93;100.00;99174.88;10390013;28;20120;-48
2022/03/16 02:23:04;;;;;;;15.38;12.00;;;;;;;4.97;100.00;99167.50;10394784;28;20155;-48
2022/03/16 02:28:07;;;;;;;14.57;11.65;;;;;;;4.88;100.00;99169.00;10369318;28;20049;-48
2022/03/16 02:33:11;;;;;;;15.10;12.07;;;;;;;4.90;100.00;99177.75;10364588;28;20129;-47
2022/03/16 02:38:15;;;;;;;16.20;13.23;;;;;;;4.87;100.00;99180.66;10369747;28;20117;-48
2022/03/16 02:43:18;;;;;;;14.15;12.30;;;;;;;4.83;100.00;99189.84;10375350;28;20080;-47
2022/03/16 02:48:21;;;;;;;17.05;12.55;;;;;;;4.84;100.00;99199.56;10372903;28;20129;-51
2022/03/16 02:53:26;;;;;;;19.20;13.98;;;;;;;4.77;100.00;99195.59;10370437;28;20124;-50
2022/03/16 02:58:29;;;;;;;20.73;14.68;;;;;;;4.72;100.00;99203.06;10381118;28;20141;-51
2022/03/16 03:03:32;;;;;;;17.70;13.98;;;;;;;4.56;100.00;99204.09;10373734;28;20141;-47
2022/03/16 03:08:36;;;;;;;20.02;14.02;;;;;;;4.48;100.00;99217.97;10371847;28;20427;-47
2022/03/16 03:13:39;;;;;;;22.10;17.17;;;;;;;4.47;100.00;99221.59;10372040;28;20050;-47
2022/03/16 03:18:42;;;;;;;23.63;17.40;;;;;;;4.46;100.00;99219.03;10367891;28;20042;-47
2022/03/16 03:23:46;;;;;;;24.88;18.25;;;;;;;4.46;100.00;99235.91;10369110;28;20133;-48
2022/03/16 03:28:49;;;;;;;19.63;15.48;;;;;;;4.37;100.00;99233.00;10371658;28;20121;-47
2022/03/16 03:33:52;;;;;;;20.63;14.98;;;;;;;4.27;100.00;99240.72;10372810;28;20053;-50
2022/03/16 03:38:57;;;;;;;19.17;14.63;;;;;;;4.23;100.00;99242.75;10366203;28;20076;-47
2022/03/16 03:44:00;;;;;;;19.73;15.57;;;;;;;4.21;100.00;99250.00;10387413;28;20454;-60
2022/03/16 03:49:03;;;;;;;23.45;16.25;;;;;;;4.20;100.00;99250.09;10365281;28;20406;-47
2022/03/16 03:54:08;;;;;;;64.10;17.02;;;;;;;4.13;100.00;99255.81;10374826;28;20054;-47
2022/03/16 03:59:11;;;;;;;100.88;18.05;;;;;;;4.14;100.00;99256.69;10373355;28;20057;-47
2022/03/16 04:04:14;;;;;;;24.17;17.52;;;;;;;4.13;100.00;99262.97;10373425;28;20496;-52
2022/03/16 04:09:18;;;;;;;28.55;17.75;;;;;;;4.11;100.00;99265.75;10377271;28;20129;-52
2022/03/16 04:14:21;;;;;;;48.97;20.20;;;;;;;4.11;100.00;99272.88;10377355;28;20077;-50
2022/03/16 04:19:24;;;;;;;215.07;28.23;;;;;;;4.05;100.00;99283.97;10393130;28;20046;-49
2022/03/16 04:24:29;;;;;;;197.82;26.95;;;;;;;3.93;100.00;99285.59;10397438;28;20113;-51
2022/03/16 04:29:32;;;;;;;221.25;28.42;;;;;;;3.94;100.00;99288.16;10393208;28;20046;-49
2022/03/16 04:34:36;;;;;;;580.05;33.83;;;;;;;3.88;100.00;99280.56;10392302;28;20132;-49
2022/03/16 04:39:40;;;;;;;729.15;39.83;;;;;;;3.83;100.00;99293.31;10387983;28;20442;-49
2022/03/16 04:44:48;;;;;;;172.82;26.75;;;;;;;3.79;100.00;99300.66;10378239;28;20066;-51
2022/03/16 04:49:51;;;;;;;36.08;22.90;;;;;;;3.75;100.00;99295.59;10379859;28;20116;-51
2022/03/16 04:54:56;;;;;;;71.38;20.02;;;;;;;3.66;100.00;99300.56;10383555;28;20510;-50
2022/03/16 04:59:59;;;;;;;100.22;16.98;;;;;;;3.56;100.00;99299.44;10393341;28;20156;-50
2022/03/16 05:05:02;;;;;;;176.90;16.02;;;;;;;3.46;100.00;99307.13;10381130;28;20625;-49
2022/03/16 05:10:09;;;;;;;25.15;17.20;;;;;;;3.38;100.00;99306.75;10385961;28;20050;-49
2022/03/16 05:15:15;;;;;;;22.58;16.60;;;;;;;3.32;100.00;99307.97;10388422;28;20038;-51
2022/03/16 05:20:19;;;;;;;25.23;18.08;;;;;;;3.24;100.00;99310.22;10388666;28;20046;-49
2022/03/16 05:25:26;;;;;;;21.77;16.33;;;;;;;3.14;100.00;99309.06;10381826;28;20041;-49
2022/03/16 05:30:29;;;;;;;23.90;16.80;;;;;;;3.11;100.00;99315.44;10375614;28;20046;-50
2022/03/16 05:35:32;;;;;;;24.02;17.10;;;;;;;3.02;100.00;99311.50;10383409;28;20073;-50
2022/03/16 05:40:36;;;;;;;21.08;16.10;;;;;;;2.91;100.00;99321.94;10370041;28;20045;-49
2022/03/16 05:45:40;;;;;;;25.48;18.63;;;;;;;2.88;100.00;99320.31;10383739;28;20125;-53
2022/03/16 05:50:45;;;;;;;29.15;19.42;;;;;;;2.87;100.00;99328.41;10374405;28;20464;-50
2022/03/16 05:55:49;;;;;;;24.98;17.42;;;;;;;2.82;100.00;99325.16;10370274;28;20052;-50
2022/03/16 06:00:52;;;;;;;26.45;18.13;;;;;;;2.73;100.00;99332.72;10370868;28;20080;-54
2022/03/16 06:05:56;;;;;;;437.33;27.02;;;;;;;2.73;100.00;99339.84;10380181;28;20485;-52
2022/03/16 06:11:00;;;;;;;513.38;28.00;;;;;;;2.64;100.00;99354.56;10372004;28;20042;-52
2022/03/16 06:16:04;;;;;;;813.65;35.25;;;;;;;2.58;100.00;99354.88;10397985;28;20030;-49
2022/03/16 06:21:08;;;;;;;1015.63;41.20;;;;;;;2.51;100.00;99365.03;10379221;28;20542;-52
2022/03/16 06:26:12;;;;;;;741.22;28.40;;;;;;;2.46;100.00;99378.59;10382258;28;20486;-54
2022/03/16 06:31:15;;;;;;;550.00;24.17;;;;;;;2.46;100.00;99375.91;10379804;28;20153;-51
2022/03/16 06:36:18;;;;;;;426.10;20.83;;;;;;;2.50;100.00;99384.59;10383461;28;20074;-50
2022/03/16 06:41:23;;;;;;;237.63;16.98;;;;;;;2.56;100.00;99388.69;10377496;28;20049;-51
2022/03/16 06:46:27;;;;;;;400.27;15.95;;;;;;;2.55;100.00;99390.50;10381815;28;20041;-51
2022/03/16 06:51:30;;;;;;;331.15;14.88;;;;;;;2.60;100.00;99396.41;10393285;28;20111;-52
2022/03/16 06:56:35;;;;;;;397.35;14.18;;;;;;;2.64;100.00;99399.78;10384997;28;20041;-51
2022/03/16 07:01:38;;;;;;;359.15;11.70;;;;;;;2.59;100.00;99399.19;10378421;28;20054;-49
2022/03/16 07:06:41;;;;;;;272.02;12.32;;;;;;;2.63;100.00;99400.72;10381614;28;20046;-52
2022/03/16 07:11:46;;;;;;;140.75;9.80;;;;;;;2.68;100.00;99403.97;10372281;28;20041;-50
2022/03/16 07:16:49;;;;;;;229.55;10.70;;;;;;;2.75;100.00;99412.47;10378511;28;20041;-52
2022/03/16 07:21:52;;;;;;;499.55;17.67;;;;;;;2.75;100.00;99423.13;10381350;28;20042;-48
2022/03/16 07:27:02;;;;;;;450.35;18.65;;;;;;;2.80;100.00;99422.84;10376030;28;20132;-62
2022/03/16 07:32:07;;;;;;;241.98;15.20;;;;;;;2.80;100.00;99422.84;10376551;28;20038;-56
2022/03/16 07:37:11;;;;;;;457.95;17.98;;;;;;;2.92;100.00;99432.78;10374177;28;20100;-54
2022/03/16 07:42:15;;;;;;;416.40;16.10;;;;;;;2.99;100.00;99439.50;10374753;28;20045;-57
2022/03/16 07:47:18;;;;;;;294.83;15.50;;;;;;;3.15;100.00;99435.94;10384495;28;20092;-57
2022/03/16 07:52:24;;;;;;;233.35;15.82;;;;;;;3.33;100.00;99434.88;10373391;28;20076;-55
2022/03/16 07:57:28;;;;;;;231.98;15.48;;;;;;;3.46;100.00;99436.81;10374985;28;20037;-53
2022/03/16 08:02:31;;;;;;;293.88;16.65;;;;;;;3.60;100.00;99439.50;10373042;28;20085;-54
2022/03/16 08:07:34;;;;;;;287.77;16.45;;;;;;;3.77;100.00;99453.63;10376946;28;20128;-55
2022/03/16 08:12:40;;;;;;;323.98;20.20;;;;;;;3.96;100.00;99456.88;10372772;28;20554;-57
2022/03/16 08:17:44;;;;;;;350.88;21.48;;;;;;;4.13;100.00;99457.66;10386315;28;20053;-62
2022/03/16 08:22:51;;;;;;;131.45;18.40;;;;;;;4.35;100.00;99465.19;10413900;28;20053;-63
2022/03/16 08:27:59;;;;;;;28.00;16.45;;;;;;;4.55;100.00;99473.75;10388239;28;20037;-63
2022/03/16 08:33:02;;;;;;;79.10;15.73;;;;;;;4.76;100.00;99468.88;10395630;28;20065;-62
2022/03/16 08:38:05;;;;;;;28.75;16.70;;;;;;;4.84;100.00;99479.03;10385605;28;20064;-62
2022/03/16 08:43:09;;;;;;;26.65;16.17;;;;;;;5.08;100.00;99479.28;10376217;28;20160;-62
2022/03/16 08:48:14;;;;;;;41.75;14.30;;;;;;;5.23;100.00;99472.91;10378934;28;20045;-61
2022/03/16 08:53:17;;;;;;;70.80;13.20;;;;;;;5.20;100.00;99466.94;10378366;28;20054;-63
2022/03/16 08:58:21;;;;;;;55.58;14.45;;;;;;;5.24;100.00;99471.97;10372441;28;20076;-62
2022/03/16 09:03:24;;;;;;;56.28;14.18;;;;;;;5.30;100.00;99480.53;10367662;28;20137;-62
2022/03/16 09:08:28;;;;;;;25.50;15.52;;;;;;;5.24;100.00;99504.03;10375039;28;20510;-62
2022/03/16 09:13:33;;;;;;;19.95;15.73;;;;;;;5.15;100.00;99501.97;10372647;28;20578;-57
2022/03/16 09:18:36;;;;;;;20.10;15.77;;;;;;;5.15;100.00;99498.44;10374462;28;20294;-57
2022/03/16 09:23:39;;;;;;;20.42;15.35;;;;;;;5.17;100.00;99505.41;10369642;28;20484;-58
2022/03/16 09:28:44;;;;;;;20.33;15.07;;;;;;;5.24;100.00;99504.03;10369676;28;20228;-60
2022/03/16 09:33:48;;;;;;;19.05;15.27;;;;;;;5.36;100.00;99512.19;10375759;28;20132;-60
2022/03/16 09:38:51;;;;;;;16.00;13.68;;;;;;;5.33;100.00;99513.25;10370572;28;20121;-60
2022/03/16 09:43:56;;;;;;;16.63;13.40;;;;;;;5.39;100.00;99514.66;10372768;28;20045;-63
2022/03/16 09:49:00;;;;;;;18.48;14.50;;;;;;;5.61;100.00;99511.44;10383095;28;20231;-59
2022/03/16 09:54:03;;;;;;;16.17;13.60;;;;;;;5.77;100.00;99515.72;10372067;28;20069;-56
2022/03/16 09:59:08;;;;;;;16.98;14.70;;;;;;;5.98;100.00;99518.78;10375310;28;20145;-54
2022/03/16 10:04:11;;;;;;;17.75;14.50;;;;;;;6.25;100.00;99525.91;10370593;28;20132;-59
2022/03/16 10:14:46;;;;;;;17.67;14.30;;;;;;;6.67;100.00;99523.00;10373421;28;20545;-56
2022/03/16 10:19:50;;;;;;;19.90;14.43;;;;;;;6.72;100.00;99519.03;10380821;28;20113;-54
2022/03/16 10:24:58;;;;;;;17.10;14.73;;;;;;;6.85;100.00;99510.97;10378363;28;20045;-54
2022/03/16 10:30:05;;;;;;;19.20;14.75;;;;;;;7.11;100.00;99515.41;10395974;28;20080;-54
2022/03/16 10:35:15;;;;;;;17.58;14.40;;;;;;;7.16;100.00;99491.78;10377908;28;20056;-56
2022/03/16 10:40:19;;;;;;;16.30;13.95;;;;;;;7.25;100.00;99489.28;10382424;28;20465;-56
2022/03/16 10:50:45;;;;;;;16.05;13.13;;;;;;;7.56;100.00;99494.19;10365663;28;20481;-53
2022/03/16 10:55:48;;;;;;;14.98;12.18;;;;;;;7.63;100.00;99490.06;10372574;28;20125;-53
2022/03/16 11:00:53;;;;;;;14.07;11.93;;;;;;;7.94;100.00;99487.72;10367707;28;21174;-52
2022/03/16 11:05:57;;;;;;;14.82;12.93;;;;;;;8.17;100.00;99485.94;10373308;28;20471;-59
2022/03/16 11:13:27;;;;;;;13.43;12.02;;;;;;;8.32;100.00;99466.94;10377058;28;20133;-53
2022/03/16 11:16:29;;;;;;;13.93;12.43;;;;;;;8.44;100.00;99482.06;10373548;28;20116;-54
2022/03/16 11:21:44;;;;;;;11.85;10.40;;;;;;;8.48;100.00;99456.69;10373550;28;20046;-51
2022/03/16 11:27:25;;;;;;;12.52;11.23;;;;;;;8.58;100.00;99451.44;10376290;28;20612;-56
2022/03/16 11:32:36;;;;;;;13.67;11.50;;;;;;;8.76;100.00;99445.59;10378300;28;20096;-57
2022/03/16 11:37:43;;;;;;;11.95;10.32;;;;;;;8.84;100.00;99429.69;10375317;28;20073;-56
2022/03/16 11:43:16;;;;;;;12.60;10.30;;;;;;;8.92;100.00;99432.59;10372417;28;20070;-59
2022/03/16 11:48:40;;;;;;;13.45;10.90;;;;;;;9.06;100.00;99427.91;10372830;28;20128;-52
2022/03/16 11:54:09;;;;;;;12.35;10.93;;;;;;;9.22;100.00;99425.69;10372300;28;20048;-52
2022/03/16 11:59:29;;;;;;;14.68;10.75;;;;;;;9.43;100.00;99414.09;10374444;28;20045;-52
2022/03/16 12:04:38;;;;;;;12.87;10.90;;;;;;;9.54;100.00;99421.25;10375122;28;20054;-55
2022/03/16 12:09:45;;;;;;;15.07;10.10;;;;;;;9.71;100.00;99423.38;10373633;28;20133;-54
2022/03/16 12:14:59;;;;;;;11.27;9.82;;;;;;;9.78;100.00;99415.63;10374954;28;20410;-57
2022/03/16 12:20:16;;;;;;;10.73;9.30;;;;;;;9.86;100.00;99407.72;10372228;28;20046;-51
2022/03/16 12:25:33;;;;;;;11.15;9.57;;;;;;;9.96;100.00;99388.94;10369890;28;20092;-58
2022/03/16 12:30:39;;;;;;;11.25;9.52;;;;;;;10.17;100.00;99396.13;10386105;28;20045;-51
2022/03/16 12:35:45;;;;;;;12.02;9.23;;;;;;;10.34;100.00;99386.56;10399794;28;20498;-50
2022/03/16 12:46:17;;;;;;;10.03;8.07;;;;;;;10.67;100.00;99365.69;10371860;28;20132;-51
2022/03/16 12:51:35;;;;;;;9.68;7.80;;;;;;;10.81;100.00;99352.81;10367560;28;20452;-54
2022/03/16 12:56:42;;;;;;;8.15;6.40;;;;;;;10.95;100.00;99355.94;10368771;28;20049;-54
2022/03/16 13:01:45;;;;;;;7.15;6.28;;;;;;;11.21;100.00;99351.84;10378680;28;20128;-53
2022/03/16 13:06:53;;;;;;;7.38;6.57;;;;;;;11.43;100.00;99333.66;10377709;28;20042;-55
2022/03/16 13:12:05;;;;;;;7.40;6.43;;;;;;;11.45;100.00;99327.09;10381552;28;20070;-53
2022/03/16 13:17:08;;;;;;;7.90;6.45;;;;;;;11.62;100.00;99317.41;10384042;28;20073;-52
2022/03/16 13:22:16;;;;;;;7.75;6.32;;;;;;;11.77;100.00;99327.75;10376208;28;20096;-52
2022/03/16 13:27:20;;;;;;;7.47;5.82;;;;;;;11.96;100.00;99319.56;10372645;28;20418;-51
2022/03/16 13:32:28;;;;;;;6.97;5.80;;;;;;;12.10;100.00;99325.53;10376818;28;20046;-52
2022/03/16 13:37:34;;;;;;;9.57;6.32;;;;;;;12.31;100.00;99319.88;10371365;28;20085;-57
2022/03/16 13:42:39;;;;;;;8.43;6.45;;;;;;;12.61;100.00;99325.97;10368418;28;20050;-55
2022/03/16 13:47:44;;;;;;;7.55;6.43;;;;;;;12.78;100.00;99326.97;10375947;28;20486;-59
2022/03/16 13:52:55;;;;;;;7.97;6.43;;;;;;;13.07;100.00;99324.06;10613379;27;21209;-59
2022/03/16 13:58:09;;;;;;;8.18;6.38;;;;;;;13.23;100.00;99320.63;10536301;28;20054;-58
2022/03/16 14:03:12;;;;;;;6.90;6.20;;;;;;;13.36;100.00;99317.53;10527660;28;20045;-54
2022/03/16 14:08:17;;;;;;;8.65;6.50;;;;;;;13.51;100.00;99320.56;10532325;28;20459;-52
2022/03/16 14:13:23;;;;;;;7.20;6.05;;;;;;;13.58;100.00;99304.53;10527982;28;20123;-53
2022/03/16 14:18:26;;;;;;;7.88;5.97;;;;;;;13.64;100.00;99300.34;10533086;28;20045;-53
2022/03/16 14:23:32;;;;;;;7.65;6.13;;;;;;;13.86;100.00;99299.78;10530690;28;20119;-54
2022/03/16 14:28:36;;;;;;;7.63;5.88;;;;;;;14.06;100.00;99304.97;10528824;28;20143;-53
2022/03/16 14:33:38;;;;;;;7.13;5.10;;;;;;;14.25;100.00;99305.72;10523168;28;20127;-55
2022/03/16 14:38:46;;;;;;;5.80;5.18;;;;;;;14.21;100.00;99304.34;10548388;28;20044;-53
2022/03/16 14:43:49;;;;;;;7.30;5.80;;;;;;;14.52;100.00;99301.91;10551383;28;20094;-52
2022/03/16 14:48:52;;;;;;;7.78;5.65;;;;;;;14.69;100.00;99308.25;10521235;28;20531;-56
2022/03/16 14:53:56;;;;;;;6.10;5.35;;;;;;;14.84;100.00;99311.16;10527142;28;20070;-53
2022/03/16 14:59:01;;;;;;;6.22;5.22;;;;;;;14.88;100.00;99306.25;10530836;28;20548;-53
2022/03/16 15:04:04;;;;;;;6.65;5.50;;;;;;;15.10;100.00;99300.19;10495966;28;20059;-55
2022/03/16 15:09:09;;;;;;;6.25;4.80;;;;;;;15.22;100.00;99297.16;10498038;28;20043;-56
2022/03/16 15:14:12;;;;;;;6.13;5.10;;;;;;;15.18;100.00;99287.63;10497829;28;20794;-56
2022/03/16 15:19:15;;;;;;;8.65;5.13;;;;;;;15.21;100.00;99290.00;10496252;28;20124;-53
2022/03/16 15:24:19;;;;;;;4.95;4.50;;;;;;;15.33;100.00;99294.09;10495580;28;20120;-57
2022/03/16 15:29:29;;;;;;;6.22;4.50;;;;;;;15.26;100.00;99287.63;10495581;28;20451;-58
2022/03/16 15:34:32;;;;;;;5.57;4.30;;;;;;;15.48;100.00;99279.78;10495617;28;20041;-61
2022/03/16 15:39:39;;;;;;;5.97;4.35;;;;;;;15.60;100.00;99272.16;10498891;28;20067;-58
2022/03/16 15:44:42;;;;;;;5.30;4.57;;;;;;;15.48;100.00;99271.63;10497719;28;20052;-55
2022/03/16 15:49:45;;;;;;;5.65;4.50;;;;;;;15.62;100.00;99279.09;10500867;28;20515;-54
2022/03/16 15:54:51;;;;;;;4.38;3.90;;;;;;;15.53;100.00;99280.13;10491439;28;20123;-56
2022/03/16 15:59:56;;;;;;;5.32;3.97;;;;;;;15.40;100.00;99284.22;10491361;28;20033;-56
2022/03/16 16:04:59;;;;;;;4.97;3.97;;;;;;;15.04;100.00;99271.00;10492664;28;20051;-61
2022/03/16 16:10:10;;;;;;;3.90;3.50;;;;;;;14.43;100.00;99263.09;10491439;28;20041;-58
2022/03/16 16:15:15;;;;;;;;;;;;;;;13.92;99.78;99262.25;10493267;28;20144;-57
2022/03/16 16:20:22;;;;;;;3.75;3.30;;;;;;;13.76;100.00;99263.84;10491520;27;19920;-58
2022/03/16 16:25:30;;;;;;;4.38;3.50;;;;;;;13.71;100.00;99274.31;10497755;28;20040;-58
2022/03/16 16:30:34;;;;;;;6.05;3.40;;;;;;;13.52;100.00;99275.41;10497724;28;20040;-58
2022/03/16 16:35:38;;;;;;;5.38;3.30;;;;;;;13.15;100.00;99277.28;10546414;27;20135;-57
2022/03/16 16:40:45;;;;;;;5.53;3.78;;;;;;;12.50;100.00;99262.16;10511660;28;20512;-57
2022/03/16 16:45:50;;;;;;;4.03;3.63;;;;;;;11.99;100.00;99254.50;10490801;28;20115;-57
2022/03/16 16:50:57;;;;;;;4.07;3.47;;;;;;;11.43;100.00;99247.31;10489661;28;20105;-57
2022/03/16 16:56:02;;;;;;;4.25;3.80;;;;;;;10.96;100.00;99262.44;10494299;28;20094;-56
2022/03/16 17:01:05;;;;;;;3.97;3.58;;;;;;;10.59;100.00;99250.50;10493766;28;20537;-57
2022/03/16 17:06:11;;;;;;;4.10;3.40;;;;;;;10.28;100.00;99249.75;10496481;28;20044;-56
2022/03/16 17:11:15;;;;;;;4.15;3.58;;;;;;;9.98;100.00;99259.59;10492887;28;20044;-55
2022/03/16 17:16:39;;;;;;;4.65;3.58;;;;;;;9.74;100.00;99257.25;10490524;28;20044;-56
2022/03/16 17:21:42;;;;;;;5.75;3.75;;;;;;;9.49;100.00;99260.22;10490275;28;20043;-54
2022/03/16 17:26:47;;;;;;;5.65;3.90;;;;;;;9.32;100.00;99272.44;10491832;28;20413;-57
2022/03/16 17:31:50;;;;;;;4.72;3.50;;;;;;;9.18;100.00;99270.97;10492904;28;20060;-56
2022/03/16 17:36:53;;;;;;;4.65;3.50;;;;;;;9.06;100.00;99277.38;10490897;28;20094;-59
2022/03/16 17:48:05;;;;;;;4.68;3.60;;;;;;;8.71;100.00;99283.91;10490668;28;20086;-55
2022/03/16 17:53:11;;;;;;;4.13;3.60;;;;;;;8.59;100.00;99281.25;10494232;28;20113;-52
2022/03/16 17:58:14;;;;;;;4.20;3.67;;;;;;;8.47;100.00;99284.91;10493266;28;20044;-57
2022/03/16 18:03:18;;;;;;;4.10;3.70;;;;;;;8.37;100.00;99282.13;10491050;28;20043;-56
2022/03/16 18:08:24;;;;;;;5.38;3.95;;;;;;;8.31;100.00;99288.84;10496341;28;20044;-51
2022/03/16 18:13:28;;;;;;;4.35;3.92;;;;;;;8.21;100.00;99277.16;10491608;28;20090;-51
2022/03/16 18:18:35;;;;;;;6.63;4.35;;;;;;;8.12;100.00;99272.56;10492625;28;20123;-51
2022/03/16 18:23:39;;;;;;;4.90;4.38;;;;;;;8.05;100.00;99264.13;10494133;28;20037;-52
2022/03/16 18:28:42;;;;;;;5.72;4.57;;;;;;;8.00;100.00;99272.56;10501853;28;20721;-56
2022/03/16 18:33:47;;;;;;;5.43;4.93;;;;;;;7.95;100.00;99273.91;10513445;27;20052;-52
2022/03/16 18:38:51;;;;;;;5.55;5.05;;;;;;;7.89;100.00;99275.25;10497072;28;20048;-56
2022/03/16 18:43:55;;;;;;;6.40;5.45;;;;;;;7.86;100.00;99275.50;10493788;28;20037;-51
2022/03/16 18:49:00;;;;;;;7.30;5.93;;;;;;;7.81;100.00;99285.75;10526891;27;20052;-51
2022/03/16 18:54:04;;;;;;;6.50;5.78;;;;;;;7.78;100.00;99289.53;10504101;28;20139;-51
2022/03/16 18:59:08;;;;;;;8.45;6.30;;;;;;;7.71;100.00;99285.63;10496830;28;20048;-56
2022/03/16 19:04:13;;;;;;;7.00;6.30;;;;;;;7.67;100.00;99268.94;10502381;28;20052;-51
2022/03/16 19:09:18;;;;;;;7.13;6.43;;;;;;;7.60;100.00;99262.31;10497019;28;20416;-55
2022/03/16 19:14:23;;;;;;;7.20;6.50;;;;;;;7.50;100.00;99251.50;10501230;28;20044;-56
2022/03/16 19:19:48;;;;;;;9.55;7.10;;;;;;;7.47;100.00;99256.22;10500299;28;20047;-56
2022/03/16 19:24:51;;;;;;;7.82;7.03;;;;;;;7.39;100.00;99260.38;10495710;28;20052;-51
2022/03/16 19:29:56;;;;;;;7.82;7.07;;;;;;;7.32;100.00;99256.47;10495481;28;20548;-52
2022/03/16 19:35:00;;;;;;;8.25;7.45;;;;;;;7.25;100.00;99255.22;10500340;28;20041;-56
2022/03/16 19:40:05;;;;;;;7.63;6.93;;;;;;;7.19;100.00;99264.59;10497091;28;20127;-53
2022/03/16 19:45:09;;;;;;;8.50;7.60;;;;;;;7.15;100.00;99246.19;10495703;28;20048;-56
2022/03/16 19:50:14;;;;;;;8.75;7.75;;;;;;;7.10;100.00;99254.59;10491233;28;20048;-54
2022/03/16 19:55:18;;;;;;;7.97;7.28;;;;;;;7.03;100.00;99264.94;10495094;28;20048;-54
2022/03/16 20:00:21;;;;;;;8.63;7.82;;;;;;;6.98;100.00;99264.44;10494703;28;20033;-56
2022/03/16 20:05:25;;;;;;;8.10;7.40;;;;;;;6.94;100.00;99254.94;10495199;28;20155;-57
2022/03/16 20:10:28;;;;;;;8.43;7.72;;;;;;;6.91;100.00;99257.84;10489630;28;20607;-54
2022/03/16 20:22:27;;;;;;;9.45;8.00;;;;;;;6.76;100.00;99266.06;10495363;28;20851;-58
2022/03/16 20:27:30;;;;;;;8.93;8.13;;;;;;;6.73;100.00;99285.06;10503554;28;20416;-54
2022/03/16 20:32:35;;;;;;;9.05;8.15;;;;;;;6.70;100.00;99274.56;10513131;28;20042;-55
2022/03/16 20:37:39;;;;;;;9.60;8.75;;;;;;;6.62;100.00;99256.41;10494243;28;20072;-55
2022/03/16 20:42:42;;;;;;;9.32;8.43;;;;;;;6.55;100.00;99278.38;10491038;28;20043;-54
2022/03/16 20:47:45;;;;;;;10.15;9.15;;;;;;;6.52;100.00;99289.34;10494795;28;20472;-53
2022/03/16 20:52:50;;;;;;;9.93;9.02;;;;;;;6.48;100.00;99308.31;10494573;28;20147;-52
2022/03/16 20:57:54;;;;;;;9.60;8.70;;;;;;;6.48;100.00;99316.34;10494946;28;20053;-53
2022/03/16 21:02:59;;;;;;;9.77;8.88;;;;;;;6.45;100.00;99315.72;10486978;28;20052;-54
2022/03/16 21:08:04;;;;;;;10.27;9.27;;;;;;;6.43;100.00;99321.16;10488586;28;20102;-51
2022/03/16 21:13:08;;;;;;;11.02;9.50;;;;;;;6.43;100.00;99325.69;10489809;28;20033;-52
2022/03/16 21:18:11;;;;;;;11.45;10.02;;;;;;;6.43;100.00;99328.34;10487580;28;20090;-55
2022/03/16 21:23:18;;;;;;;10.75;9.75;;;;;;;6.44;100.00;99322.88;10489003;28;20518;-54
2022/03/16 21:28:21;;;;;;;10.77;9.70;;;;;;;6.41;100.00;99319.56;10489042;28;20029;-53
2022/03/16 21:33:24;;;;;;;12.00;10.80;;;;;;;6.39;100.00;99324.19;10485876;28;20745;-57
2022/03/16 21:38:31;;;;;;;10.82;9.82;;;;;;;6.35;100.00;99317.38;10488704;28;20038;-53
2022/03/16 21:43:34;;;;;;;11.38;10.27;;;;;;;6.30;100.00;99320.34;10487132;28;20048;-54
2022/03/16 21:48:41;;;;;;;11.50;10.38;;;;;;;6.25;100.00;99322.53;10486882;28;20052;-53
2022/03/16 21:53:48;;;;;;;11.93;10.70;;;;;;;6.20;100.00;99313.97;10488722;28;20040;-58
2022/03/16 21:58:51;;;;;;;11.15;10.10;;;;;;;6.16;100.00;99308.84;10489736;28;20047;-52
2022/03/16 22:03:54;;;;;;;11.35;10.30;;;;;;;6.13;100.00;99303.72;10489734;28;20381;-54
2022/03/16 22:08:59;;;;;;;11.73;10.55;;;;;;;6.13;100.00;99294.81;10487539;28;20146;-55
2022/03/16 22:14:02;;;;;;;11.50;10.40;;;;;;;6.10;100.00;99285.19;10496892;28;20545;-55
2022/03/16 22:19:05;;;;;;;11.50;10.45;;;;;;;6.05;100.00;99290.03;10498118;28;20132;-52
2022/03/16 22:24:10;;;;;;;11.60;10.55;;;;;;;6.01;100.00;99289.38;10503908;28;20040;-55
2022/03/16 22:29:13;;;;;;;11.23;10.13;;;;;;;5.99;100.00;99280.66;10526708;28;20044;-55
2022/03/16 22:34:16;;;;;;;10.43;9.43;;;;;;;5.93;100.00;99278.38;10507389;28;20049;-51
2022/03/16 22:39:20;;;;;;;10.35;9.35;;;;;;;5.86;100.00;99275.28;10497642;28;20040;-52
2022/03/16 22:44:23;;;;;;;10.45;9.45;;;;;;;5.80;100.00;99267.72;10501201;28;20040;-53
2022/03/16 22:49:26;;;;;;;10.25;9.27;;;;;;;5.75;100.00;99277.88;10496307;28;20127;-53
2022/03/16 22:54:31;;;;;;;10.13;9.23;;;;;;;5.74;100.00;99262.78;10501007;28;20404;-51
2022/03/16 22:59:33;;;;;;;10.45;9.35;;;;;;;5.69;100.00;99264.94;10501119;28;20115;-55
2022/03/16 23:04:36;;;;;;;10.32;8.85;;;;;;;5.65;100.00;99260.78;10510190;28;20115;-51
2022/03/16 23:09:41;;;;;;;10.13;9.23;;;;;;;5.61;100.00;99261.94;10496556;28;20048;-54
2022/03/16 23:14:44;;;;;;;9.82;8.82;;;;;;;5.58;100.00;99256.84;10496856;28;20040;-52
2022/03/16 23:19:47;;;;;;;9.68;8.77;;;;;;;5.55;100.00;99261.44;10500521;28;20052;-52
2022/03/16 23:24:52;;;;;;;10.05;9.15;;;;;;;5.55;100.00;99258.75;10501786;28;20040;-53
2022/03/16 23:29:55;;;;;;;10.32;9.32;;;;;;;5.52;100.00;99269.66;10499300;28;20526;-54
2022/03/16 23:35:23;;;;;;;9.50;8.60;;;;;;;5.50;100.00;99260.88;10499344;28;20492;-51
2022/03/16 23:40:28;;;;;;;9.88;8.88;;;;;;;5.48;100.00;99248.59;10497587;28;20048;-52
2022/03/16 23:45:32;;;;;;;9.98;8.98;;;;;;;5.47;100.00;99241.53;10497409;28;20067;-53